createdAt,value
2018-06-13T00:01:58.084Z,4.80
2018-06-13T00:04:26.106Z,5.40
2018-06-13T00:06:54.116Z,4.70
2018-06-13T00:09:22.141Z,4.40
2018-06-13T00:11:50.154Z,5.53
2018-06-13T00:14:17.987Z,4.67
2018-06-13T00:16:45.984Z,4.87
2018-06-13T00:19:13.803Z,4.70
2018-06-13T00:21:41.837Z,4.78
2018-06-13T00:24:09.881Z,5.00
2018-06-13T00:26:37.908Z,4.72
2018-06-13T00:29:05.941Z,5.10
2018-06-13T00:31:33.968Z,4.83
2018-06-13T00:34:02.024Z,4.80
2018-06-13T00:36:30.044Z,5.10
2018-06-13T00:38:58.060Z,5.12
2018-06-13T00:41:26.108Z,4.67
2018-06-13T00:43:54.146Z,5.00
2018-06-13T00:46:21.971Z,5.80
2018-06-13T00:48:50.024Z,6.00
2018-06-13T00:51:18.040Z,5.67
2018-06-13T00:53:45.875Z,5.30
2018-06-13T00:56:25.429Z,4.75
2018-06-13T00:58:53.456Z,4.53
2018-06-13T01:01:21.491Z,4.45
2018-06-13T01:03:49.528Z,4.37
2018-06-13T01:06:17.553Z,4.30
2018-06-13T01:08:45.608Z,4.33
2018-06-13T01:11:13.642Z,4.10
2018-06-13T01:13:41.664Z,4.10
2018-06-13T01:16:09.693Z,3.92
2018-06-13T01:18:37.724Z,4.58
2018-06-13T01:21:05.756Z,5.00
2018-06-13T01:23:33.804Z,4.83
2018-06-13T01:26:01.821Z,5.72
2018-06-13T01:28:29.884Z,5.00
2018-06-13T01:30:57.920Z,4.80
2018-06-13T01:33:25.940Z,4.90
2018-06-13T01:35:53.979Z,4.95
2018-06-13T01:38:22.030Z,5.00
2018-06-13T01:40:50.049Z,4.80
2018-06-13T01:43:18.079Z,4.40
2018-06-13T01:45:45.898Z,4.83
2018-06-13T01:48:13.925Z,4.70
2018-06-13T01:50:59.796Z,5.00
2018-06-13T01:53:29.005Z,4.83
2018-06-13T01:55:57.096Z,4.75
2018-06-13T01:58:25.137Z,4.80
2018-06-13T02:00:53.160Z,4.90
2018-06-13T02:03:21.195Z,5.22
2018-06-13T02:05:49.228Z,5.17
2018-06-13T02:08:17.277Z,5.58
2018-06-13T02:10:45.322Z,5.40
2018-06-13T02:13:13.368Z,5.80
2018-06-13T02:15:41.388Z,5.37
2018-06-13T02:18:09.416Z,4.75
2018-06-13T02:20:37.442Z,4.92
2018-06-13T02:23:05.484Z,4.72
2018-06-13T02:25:33.508Z,5.37
2018-06-13T02:28:01.327Z,4.53
2018-06-13T02:30:29.324Z,5.00
2018-06-13T02:32:57.339Z,5.00
2018-06-13T02:35:25.345Z,5.40
2018-06-13T02:37:53.350Z,5.00
2018-06-13T02:40:21.178Z,5.50
2018-06-13T02:42:49.192Z,5.08
2018-06-13T02:45:17.196Z,4.80
2018-06-13T02:47:45.215Z,4.40
2018-06-13T02:50:13.229Z,4.80
2018-06-13T02:52:41.215Z,4.50
2018-06-13T02:55:09.253Z,4.65
2018-06-13T02:57:37.274Z,4.80
2018-06-13T03:00:05.291Z,5.03
2018-06-13T03:02:33.316Z,6.08
2018-06-13T03:05:01.346Z,5.50
2018-06-13T03:07:29.351Z,5.85
2018-06-13T03:09:57.371Z,5.87
2018-06-13T03:12:25.376Z,5.33
2018-06-13T03:14:53.392Z,5.47
2018-06-13T03:17:21.401Z,5.37
2018-06-13T03:19:49.420Z,5.60
2018-06-13T03:22:17.432Z,4.80
2018-06-13T03:24:45.464Z,4.60
2018-06-13T03:27:13.291Z,5.05
2018-06-13T03:29:41.312Z,4.55
2018-06-13T03:32:09.859Z,4.70
2018-06-13T03:34:37.899Z,4.42
2018-06-13T03:37:05.927Z,4.40
2018-06-13T03:39:33.945Z,3.87
2018-06-13T03:42:01.970Z,4.00
2018-06-13T03:44:29.782Z,3.67
2018-06-13T03:46:57.791Z,4.10
2018-06-13T03:49:25.826Z,3.42
2018-06-13T03:51:53.844Z,3.35
2018-06-13T03:54:21.868Z,3.15
2018-06-13T03:56:49.918Z,3.30
2018-06-13T03:59:17.956Z,3.00
2018-06-13T04:01:46.000Z,3.00
2018-06-13T04:04:14.032Z,2.83
2018-06-13T04:06:42.053Z,2.40
2018-06-13T04:09:09.896Z,2.60
2018-06-13T04:11:37.942Z,2.40
2018-06-13T04:14:06.004Z,2.23
2018-06-13T04:16:34.033Z,2.55
2018-06-13T04:19:01.956Z,2.40
2018-06-13T04:21:30.000Z,2.83
2018-06-13T04:23:58.043Z,2.65
2018-06-13T04:26:26.073Z,2.98
2018-06-13T04:28:54.106Z,2.50
2018-06-13T04:31:22.135Z,2.85
2018-06-13T04:33:49.992Z,3.10
2018-06-13T04:36:18.012Z,2.40
2018-06-13T04:38:46.072Z,2.70
2018-06-13T04:41:14.116Z,2.90
2018-06-13T04:43:42.153Z,2.80
2018-06-13T04:46:10.171Z,2.20
2018-06-13T04:48:38.214Z,2.80
2018-06-13T04:51:06.245Z,2.20
2018-06-13T04:53:34.280Z,2.15
2018-06-13T04:56:02.308Z,2.40
2018-06-13T04:58:30.327Z,2.20
2018-06-13T05:00:58.408Z,2.20
2018-06-13T05:03:26.443Z,1.90
2018-06-13T05:05:54.274Z,1.90
2018-06-13T05:08:22.305Z,2.35
2018-06-13T05:10:50.353Z,2.27
2018-06-13T05:13:18.183Z,2.80
2018-06-13T05:15:46.203Z,2.30
2018-06-13T05:18:14.241Z,3.20
2018-06-13T05:20:42.252Z,2.05
2018-06-13T05:23:10.268Z,2.30
2018-06-13T05:25:38.300Z,2.37
2018-06-13T05:28:06.300Z,2.50
2018-06-13T05:30:34.324Z,2.30
2018-06-13T05:33:02.390Z,3.20
2018-06-13T05:35:30.264Z,2.30
2018-06-13T05:37:58.267Z,1.97
2018-06-13T05:40:26.304Z,2.10
2018-06-13T05:42:54.340Z,2.00
2018-06-13T05:45:22.377Z,1.90
2018-06-13T05:47:50.374Z,2.42
2018-06-13T05:50:18.424Z,2.47
2018-06-13T05:52:46.436Z,2.40
2018-06-13T05:55:14.464Z,2.17
2018-06-13T05:57:42.484Z,2.22
2018-06-13T06:00:10.513Z,2.40
2018-06-13T06:02:38.536Z,2.20
2018-06-13T06:05:06.553Z,2.75
2018-06-13T06:07:34.583Z,2.22
2018-06-13T06:10:02.589Z,2.40
2018-06-13T06:12:30.602Z,2.27
2018-06-13T06:14:58.619Z,2.22
2018-06-13T06:17:26.648Z,2.40
2018-06-13T06:19:54.664Z,2.07
2018-06-13T06:22:22.724Z,1.80
2018-06-13T06:24:50.754Z,2.27
2018-06-13T06:27:18.756Z,2.10
2018-06-13T06:29:46.755Z,1.90
2018-06-13T06:32:14.820Z,2.20
2018-06-13T06:34:42.840Z,1.90
2018-06-13T06:37:10.881Z,1.98
2018-06-13T06:39:38.892Z,1.60
2018-06-13T06:42:06.945Z,1.70
2018-06-13T06:44:34.952Z,2.80
2018-06-13T06:47:02.980Z,1.90
2018-06-13T06:49:31.017Z,2.05
2018-06-13T06:51:59.026Z,2.10
2018-06-13T06:54:27.050Z,2.20
2018-06-13T06:56:55.080Z,2.25
2018-06-13T06:59:23.175Z,2.20
2018-06-13T07:01:51.187Z,2.03
2018-06-13T07:04:19.188Z,2.15
2018-06-13T07:06:47.212Z,1.92
2018-06-13T07:09:15.087Z,1.80
2018-06-13T07:11:42.920Z,1.90
2018-06-13T07:14:10.944Z,1.53
2018-06-13T07:16:38.976Z,2.30
2018-06-13T07:19:07.092Z,1.70
2018-06-13T07:21:35.156Z,1.75
2018-06-13T07:24:03.181Z,1.60
2018-06-13T07:26:31.248Z,1.70
2018-06-13T07:28:59.612Z,1.90
2018-06-13T07:31:27.640Z,1.72
2018-06-13T07:33:56.288Z,1.70
2018-06-13T07:36:24.312Z,1.65
2018-06-13T07:38:52.347Z,1.77
2018-06-13T07:41:20.211Z,1.87
2018-06-13T07:43:48.033Z,2.00
2018-06-13T07:46:16.081Z,1.80
2018-06-13T07:48:44.119Z,1.90
2018-06-13T07:51:12.173Z,1.70
2018-06-13T07:53:40.189Z,1.65
2018-06-13T07:56:08.262Z,1.90
2018-06-13T07:58:36.340Z,1.87
2018-06-13T08:01:04.385Z,1.80
2018-06-13T08:03:32.436Z,1.72
2018-06-13T08:06:00.475Z,1.80
2018-06-13T08:08:28.877Z,2.00
2018-06-13T08:10:56.889Z,2.12
2018-06-13T08:13:24.911Z,1.70
2018-06-13T08:15:53.365Z,1.60
2018-06-13T08:18:21.396Z,1.90
2018-06-13T08:20:49.440Z,1.60
2018-06-13T08:23:17.472Z,2.10
2018-06-13T08:25:45.519Z,2.20
2018-06-13T08:28:13.580Z,1.80
2018-06-13T08:30:41.604Z,1.80
2018-06-13T08:33:09.671Z,1.80
2018-06-13T08:35:37.699Z,1.57
2018-06-13T08:38:05.759Z,1.70
2018-06-13T08:40:33.840Z,1.70
2018-06-13T08:43:01.892Z,1.90
2018-06-13T08:45:29.933Z,1.60
2018-06-13T08:47:57.984Z,1.67
2018-06-13T08:50:26.032Z,2.00
2018-06-13T08:52:54.093Z,1.80
2018-06-13T08:55:22.118Z,1.60
2018-06-13T08:57:49.945Z,1.60
2018-06-13T09:00:18.004Z,2.20
2018-06-13T09:02:46.016Z,1.62
2018-06-13T09:05:14.044Z,1.60
2018-06-13T09:07:42.071Z,1.98
2018-06-13T09:10:10.109Z,2.00
2018-06-13T09:12:38.135Z,1.80
2018-06-13T09:15:06.217Z,1.60
2018-06-13T09:17:34.224Z,1.85
2018-06-13T09:20:02.268Z,1.90
2018-06-13T09:22:30.349Z,1.80
2018-06-13T09:24:58.348Z,1.63
2018-06-13T09:27:26.370Z,1.67
2018-06-13T09:29:54.407Z,1.70
2018-06-13T09:32:22.448Z,1.70
2018-06-13T09:34:50.473Z,1.85
2018-06-13T09:37:18.578Z,1.60
2018-06-13T09:39:46.544Z,1.70
2018-06-13T09:42:14.588Z,1.65
2018-06-13T09:44:42.613Z,1.65
2018-06-13T09:47:15.139Z,1.90
2018-06-13T09:49:38.533Z,1.80
2018-06-13T09:52:06.548Z,1.92
2018-06-13T09:54:34.620Z,1.70
2018-06-13T09:57:02.670Z,1.62
2018-06-13T09:59:36.142Z,1.70
2018-06-13T10:02:09.537Z,2.15
2018-06-13T10:04:37.529Z,1.80
2018-06-13T10:07:05.584Z,2.05
2018-06-13T10:09:33.636Z,1.80
2018-06-13T10:12:01.652Z,2.00
2018-06-13T10:14:29.693Z,1.80
2018-06-13T10:16:57.706Z,1.90
2018-06-13T10:19:25.736Z,2.30
2018-06-13T10:21:53.765Z,2.40
2018-06-13T10:24:21.832Z,2.00
2018-06-13T10:26:49.831Z,1.85
2018-06-13T10:29:17.869Z,2.27
2018-06-13T10:31:45.965Z,1.80
2018-06-13T10:34:14.052Z,2.00
2018-06-13T10:36:42.054Z,1.90
2018-06-13T10:39:10.060Z,1.98
2018-06-13T10:41:38.089Z,2.42
2018-06-13T10:44:06.151Z,1.70
2018-06-13T10:46:34.202Z,2.08
2018-06-13T10:49:02.240Z,1.90
2018-06-13T10:51:30.260Z,1.95
2018-06-13T10:53:58.309Z,1.90
2018-06-13T10:56:26.344Z,2.00
2018-06-13T10:58:54.372Z,2.00
2018-06-13T11:01:22.396Z,2.30
2018-06-13T11:03:50.448Z,2.05
2018-06-13T11:06:18.480Z,1.90
2018-06-13T11:08:46.316Z,2.00
2018-06-13T11:11:14.359Z,2.30
2018-06-13T11:13:42.588Z,2.20
2018-06-13T11:16:10.428Z,2.40
2018-06-13T11:18:38.477Z,2.77
2018-06-13T11:21:06.599Z,2.30
2018-06-13T11:23:34.420Z,2.70
2018-06-13T11:26:02.456Z,2.70
2018-06-13T11:28:30.484Z,2.80
2018-06-13T11:30:58.521Z,2.72
2018-06-13T11:33:26.539Z,3.05
2018-06-13T11:35:54.576Z,2.67
2018-06-13T11:38:22.612Z,2.85
2018-06-13T11:40:50.632Z,3.08
2018-06-13T11:43:18.639Z,2.80
2018-06-13T11:45:46.666Z,2.50
2018-06-13T11:48:14.705Z,3.47
2018-06-13T11:50:42.723Z,3.40
2018-06-13T11:53:10.617Z,3.10
2018-06-13T11:55:38.685Z,2.90
2018-06-13T11:58:06.753Z,2.60
2018-06-13T12:00:34.837Z,2.60
2018-06-13T12:03:02.881Z,2.40
2018-06-13T12:05:30.913Z,2.80
2018-06-13T12:07:59.024Z,3.10
2018-06-13T12:10:27.084Z,3.30
2018-06-13T12:12:55.144Z,3.20
2018-06-13T12:15:23.184Z,3.15
2018-06-13T12:17:51.231Z,3.08
2018-06-13T12:20:19.277Z,3.40
2018-06-13T12:22:47.083Z,2.72
2018-06-13T12:25:15.127Z,2.77
2018-06-13T12:27:43.172Z,3.20
2018-06-13T12:30:11.199Z,2.50
2018-06-13T12:32:39.228Z,3.08
2018-06-13T12:35:07.332Z,2.70
2018-06-13T12:37:35.356Z,2.90
2018-06-13T12:40:03.184Z,2.95
2018-06-13T12:42:31.212Z,2.50
2018-06-13T12:44:59.327Z,3.00
2018-06-13T12:47:27.372Z,2.22
2018-06-13T12:49:55.409Z,2.70
2018-06-13T12:52:23.439Z,2.42
2018-06-13T12:54:51.496Z,2.60
2018-06-13T12:57:19.526Z,2.60
2018-06-13T12:59:47.555Z,2.90
2018-06-13T13:02:15.589Z,2.30
2018-06-13T13:04:44.050Z,2.70
2018-06-13T13:07:12.072Z,2.70
2018-06-13T13:09:40.128Z,2.90
2018-06-13T13:12:08.209Z,2.40
2018-06-13T13:14:36.179Z,2.43
2018-06-13T13:17:04.213Z,3.17
2018-06-13T13:19:32.269Z,3.10
2018-06-13T13:22:00.330Z,2.45
2018-06-13T13:24:28.135Z,2.70
2018-06-13T13:26:56.187Z,3.00
2018-06-13T13:29:24.188Z,3.00
2018-06-13T13:31:52.219Z,2.80
2018-06-13T13:34:20.262Z,2.60
2018-06-13T13:36:48.099Z,2.45
2018-06-13T13:39:16.131Z,3.00
2018-06-13T13:41:44.168Z,2.30
2018-06-13T13:44:11.976Z,2.85
2018-06-13T13:46:39.981Z,2.62
2018-06-13T13:49:08.020Z,2.27
2018-06-13T13:51:36.096Z,2.67
2018-06-13T13:54:04.140Z,2.30
2018-06-13T13:56:32.131Z,2.10
2018-06-13T13:59:00.164Z,2.00
2018-06-13T14:01:28.180Z,2.10
2018-06-13T14:03:56.261Z,2.20
2018-06-13T14:06:24.344Z,2.10
2018-06-13T14:08:52.400Z,2.00
2018-06-13T14:11:20.424Z,2.10
2018-06-13T14:13:48.439Z,2.62
2018-06-13T14:16:16.446Z,2.20
2018-06-13T14:18:44.453Z,2.30
2018-06-13T14:21:12.461Z,2.10
2018-06-13T14:23:40.492Z,2.37
2018-06-13T14:26:08.554Z,1.90
2018-06-13T14:28:36.567Z,2.70
2018-06-13T14:31:04.588Z,2.20
2018-06-13T14:33:32.661Z,2.05
2018-06-13T14:36:00.725Z,2.00
2018-06-13T14:38:28.702Z,1.90
2018-06-13T14:40:56.735Z,2.00
2018-06-13T14:43:24.763Z,2.30
2018-06-13T14:45:52.773Z,2.33
2018-06-13T14:48:20.613Z,2.10
2018-06-13T14:50:48.647Z,1.70
2018-06-13T14:53:16.677Z,2.25
2018-06-13T14:55:51.957Z,2.10
2018-06-13T14:58:19.956Z,2.80
2018-06-13T15:00:47.993Z,2.22
2018-06-13T15:03:16.023Z,2.10
2018-06-13T15:05:44.051Z,2.40
2018-06-13T15:08:12.070Z,2.87
2018-06-13T15:10:40.087Z,2.75
2018-06-13T15:13:08.191Z,2.75
2018-06-13T15:15:35.979Z,2.72
2018-06-13T15:18:03.844Z,2.72
2018-06-13T15:20:31.664Z,2.53
2018-06-13T15:22:59.692Z,2.97
2018-06-13T15:25:27.719Z,2.95
2018-06-13T15:27:55.807Z,2.95
2018-06-13T15:30:23.627Z,2.90
2018-06-13T15:32:51.664Z,3.08
2018-06-13T15:35:19.713Z,2.47
2018-06-13T15:37:47.779Z,2.50
2018-06-13T15:40:15.815Z,2.90
2018-06-13T15:42:43.860Z,2.40
2018-06-13T15:45:11.880Z,2.72
2018-06-13T15:47:39.924Z,2.42
2018-06-13T15:50:07.968Z,2.83
2018-06-13T15:52:36.204Z,2.87
2018-06-13T15:55:04.360Z,2.73
2018-06-13T15:57:32.456Z,2.20
2018-06-13T16:00:00.563Z,2.50
2018-06-13T16:02:28.613Z,2.70
2018-06-13T16:04:56.655Z,2.60
2018-06-13T16:07:24.709Z,2.47
2018-06-13T16:09:52.774Z,2.70
2018-06-13T16:12:20.839Z,3.00
2018-06-13T16:14:48.884Z,2.83
2018-06-13T16:17:16.979Z,2.30
2018-06-13T16:19:45.018Z,2.50
2018-06-13T16:22:13.072Z,2.70
2018-06-13T16:24:41.116Z,2.30
2018-06-13T16:27:09.172Z,2.30
2018-06-13T16:29:38.096Z,2.47
2018-06-13T16:32:06.225Z,2.80
2018-06-13T16:34:34.425Z,3.02
2018-06-13T16:37:02.466Z,2.40
2018-06-13T16:39:30.472Z,2.40
2018-06-13T16:41:58.335Z,2.92
2018-06-13T16:44:26.368Z,3.30
2018-06-13T16:46:54.396Z,2.80
2018-06-13T16:49:22.466Z,2.80
2018-06-13T16:51:52.948Z,2.87
2018-06-13T16:54:32.404Z,2.40
2018-06-13T16:57:00.420Z,2.50
2018-06-13T16:59:28.457Z,2.80
2018-06-13T17:01:56.304Z,3.00
2018-06-13T17:04:24.566Z,2.70
2018-06-13T17:06:53.132Z,2.95
2018-06-13T17:09:21.192Z,2.80
2018-06-13T17:11:49.601Z,2.83
2018-06-13T17:14:17.624Z,3.10
2018-06-13T17:16:45.652Z,2.87
2018-06-13T17:19:13.690Z,2.70
2018-06-13T17:21:41.808Z,2.70
2018-06-13T17:24:09.820Z,2.80
2018-06-13T17:26:37.844Z,2.40
2018-06-13T17:29:05.863Z,2.55
2018-06-13T17:31:33.932Z,3.00
2018-06-13T17:34:01.977Z,3.58
2018-06-13T17:36:30.020Z,2.70
2018-06-13T17:38:58.072Z,2.75
2018-06-13T17:41:26.103Z,2.90
2018-06-13T17:43:54.114Z,2.85
2018-06-13T17:46:22.124Z,2.70
2018-06-13T17:48:50.144Z,2.80
2018-06-13T17:51:18.216Z,3.30
2018-06-13T17:53:46.221Z,3.10
2018-06-13T17:56:14.288Z,3.30
2018-06-13T17:58:42.319Z,2.80
2018-06-13T18:01:10.371Z,3.20
2018-06-13T18:03:38.392Z,3.10
2018-06-13T18:06:06.425Z,3.40
2018-06-13T18:08:34.472Z,3.35
2018-06-13T18:11:02.496Z,3.70
2018-06-13T18:13:30.559Z,3.27
2018-06-13T18:15:58.604Z,2.60
2018-06-13T18:18:26.762Z,2.90
2018-06-13T18:20:54.765Z,3.17
2018-06-13T18:23:22.768Z,3.20
2018-06-13T18:25:50.620Z,2.92
2018-06-13T18:28:18.703Z,3.40
2018-06-13T18:30:46.733Z,2.80
2018-06-13T18:33:14.755Z,3.60
2018-06-13T18:35:42.808Z,3.30
2018-06-13T18:38:10.644Z,3.00
2018-06-13T18:40:38.672Z,3.20
2018-06-13T18:43:06.726Z,3.10
2018-06-13T18:45:34.776Z,3.45
2018-06-13T18:48:02.841Z,3.30
2018-06-13T18:50:30.880Z,3.33
2018-06-13T18:52:58.942Z,3.47
2018-06-13T18:55:27.064Z,3.92
2018-06-13T18:57:54.895Z,3.70
2018-06-13T19:00:22.924Z,3.70
2018-06-13T19:02:50.968Z,3.70
2018-06-13T19:05:18.822Z,3.52
2018-06-13T19:07:46.872Z,3.50
2018-06-13T19:10:14.920Z,3.00
2018-06-13T19:12:42.974Z,3.35
2018-06-13T19:15:11.008Z,3.60
2018-06-13T19:17:39.028Z,3.70
2018-06-13T19:20:07.060Z,3.60
2018-06-13T19:22:35.101Z,3.27
2018-06-13T19:25:03.239Z,3.27
2018-06-13T19:27:31.268Z,3.30
2018-06-13T19:29:59.232Z,3.12
2018-06-13T19:32:27.585Z,3.60
2018-06-13T19:34:55.611Z,3.30
2018-06-13T19:37:23.656Z,3.20
2018-06-13T19:39:51.499Z,3.67
2018-06-13T19:42:19.533Z,3.02
2018-06-13T19:44:47.625Z,3.77
2018-06-13T19:47:21.093Z,3.40
2018-06-13T19:49:49.129Z,3.40
2018-06-13T19:52:16.968Z,3.27
2018-06-13T19:54:50.620Z,3.10
2018-06-13T19:57:18.676Z,3.40
2018-06-13T19:59:46.499Z,3.50
2018-06-13T20:02:14.536Z,3.70
2018-06-13T20:05:50.012Z,3.50
2018-06-13T20:08:18.072Z,3.10
2018-06-13T20:10:46.120Z,3.30
2018-06-13T20:13:19.588Z,3.05
2018-06-13T20:15:52.903Z,3.17
2018-06-13T20:19:30.547Z,3.17
2018-06-13T20:21:59.568Z,2.90
2018-06-13T20:24:27.604Z,3.25
2018-06-13T20:27:01.163Z,3.10
2018-06-13T20:29:34.733Z,3.30
2018-06-13T20:32:02.796Z,3.40
2018-06-13T20:34:30.805Z,3.22
2018-06-13T20:36:58.869Z,3.05
2018-06-13T20:39:26.895Z,3.00
2018-06-13T20:41:54.920Z,2.90
2018-06-13T20:44:23.050Z,2.62
2018-06-13T20:46:51.100Z,2.60
2018-06-13T20:49:19.119Z,3.10
2018-06-13T20:51:47.139Z,2.95
2018-06-13T20:54:15.172Z,2.70
2018-06-13T20:56:43.190Z,2.55
2018-06-13T20:59:11.212Z,3.00
2018-06-13T21:01:39.212Z,2.47
2018-06-13T21:04:07.245Z,2.40
2018-06-13T21:06:35.592Z,2.90
2018-06-13T21:09:06.285Z,2.87
2018-06-13T21:11:34.578Z,2.87
2018-06-13T21:14:02.633Z,2.80
2018-06-13T21:16:30.650Z,2.62
2018-06-13T21:18:58.692Z,3.00
2018-06-13T21:21:26.700Z,2.87
2018-06-13T21:23:54.735Z,2.70
2018-06-13T21:26:22.767Z,2.50
2018-06-13T21:28:50.829Z,2.83
2018-06-13T21:31:18.856Z,2.50
2018-06-13T21:33:46.872Z,2.77
2018-06-13T21:36:14.936Z,2.80
2018-06-13T21:38:42.973Z,2.70
2018-06-13T21:41:11.001Z,3.00
2018-06-13T21:43:39.059Z,2.60
2018-06-13T21:46:07.102Z,2.70
2018-06-13T21:48:35.126Z,3.30
2018-06-13T21:51:03.183Z,2.85
2018-06-13T21:53:31.234Z,2.87
2018-06-13T21:55:59.241Z,3.00
2018-06-13T21:58:27.308Z,2.80
2018-06-13T22:00:55.348Z,3.00
2018-06-13T22:03:23.426Z,2.70
2018-06-13T22:05:51.465Z,3.10
2018-06-13T22:08:19.504Z,3.33
2018-06-13T22:10:47.535Z,3.00
2018-06-13T22:13:15.568Z,3.00
2018-06-13T22:15:43.600Z,3.12
2018-06-13T22:18:11.653Z,3.10
2018-06-13T22:20:39.667Z,3.30
2018-06-13T22:23:07.501Z,3.45
2018-06-13T22:25:35.516Z,3.30
2018-06-13T22:28:03.567Z,3.00
2018-06-13T22:30:31.569Z,3.00
2018-06-13T22:32:59.621Z,3.20
2018-06-13T22:35:27.427Z,3.40
2018-06-13T22:37:55.472Z,3.40
2018-06-13T22:40:23.476Z,3.60
2018-06-13T22:42:51.490Z,3.30
2018-06-13T22:45:19.496Z,3.30
2018-06-13T22:47:47.508Z,3.80
2018-06-13T22:50:15.529Z,3.40
2018-06-13T22:52:43.550Z,3.40
2018-06-13T22:55:11.625Z,3.40
2018-06-13T22:57:39.632Z,3.40
2018-06-13T23:00:07.673Z,3.70
2018-06-13T23:02:35.524Z,3.50
2018-06-13T23:05:03.552Z,3.70
2018-06-13T23:07:31.560Z,3.50
2018-06-13T23:09:59.590Z,3.27
2018-06-13T23:12:27.586Z,3.60
2018-06-13T23:14:55.612Z,3.30
2018-06-13T23:17:23.621Z,3.50
2018-06-13T23:19:51.635Z,3.70
2018-06-13T23:22:19.652Z,3.93
2018-06-13T23:24:47.672Z,3.58
2018-06-13T23:27:15.489Z,3.77
2018-06-13T23:29:43.520Z,3.72
2018-06-13T23:32:12.160Z,3.47
2018-06-13T23:34:40.190Z,3.62
2018-06-13T23:37:08.197Z,3.90
2018-06-13T23:39:36.216Z,3.80
2018-06-13T23:42:04.244Z,4.10
2018-06-13T23:44:32.249Z,4.08
2018-06-13T23:47:00.260Z,4.00
2018-06-13T23:49:28.269Z,3.60
2018-06-13T23:51:56.086Z,3.70
2018-06-13T23:54:24.091Z,3.80
2018-06-13T23:56:51.907Z,3.70
2018-06-13T23:59:19.916Z,3.67
